Terminal Aerodrome Forecast
Issued by NWS Green Bay, WI

Home | Current Version | Previous Version | Text Only | Print | Product List | Glossary On
Versions: 1 2 3 4 5 6 7 8 9 10 11 12 13 14 15 16 17 18 19 20 21 22 23 24 25 26 27 28 29 30 31 32 33 34 35 36 37 38 39 40 41
000
FTUS43 KGRB 292323
TAFGRB
TAF
KGRB 292323Z 3000/3024 VRB03KT P6SM SCT020 BKN035
      TEMPO 3000/3004 BKN025
     FM300400 VRB03KT 6SM BR SCT020
     FM300600 00000KT 4SM BR SCT002 SCT020
     FM300900 00000KT 1SM BR SCT002
      TEMPO 3009/3013 1/4SM FG VV002
     FM301500 22003KT 5SM BR BKN012
     FM301600 21005KT P6SM FEW020
     FM301800 21006KT P6SM SKC=

USA.gov is the U.S. government's official web portal to all federal, state and local government web resources and services.